createdAt,value
2018-12-02T00:09:10.185Z,10.93
2018-12-02T00:19:29.268Z,20.90
2018-12-02T00:29:48.645Z,14.63
2018-12-02T00:40:12.187Z,16.10
2018-12-02T00:50:32.365Z,33.10
2018-12-02T01:00:52.235Z,27.67
2018-12-02T01:11:10.930Z,31.50
2018-12-02T01:21:31.301Z,27.67
2018-12-02T01:31:51.302Z,24.67
2018-12-02T01:42:10.658Z,22.43
2018-12-02T01:52:30.091Z,22.57
2018-12-02T02:02:49.735Z,21.17
2018-12-02T02:13:08.834Z,23.50
2018-12-02T02:23:28.332Z,19.00
2018-12-02T02:33:47.844Z,23.60
2018-12-02T02:44:08.126Z,21.30
2018-12-02T02:54:26.899Z,30.37
2018-12-02T03:04:46.106Z,18.83
2018-12-02T03:15:07.775Z,27.83
2018-12-02T03:25:27.567Z,27.13
2018-12-02T03:35:47.604Z,22.17
2018-12-02T03:46:07.382Z,18.40
2018-12-02T03:56:28.109Z,22.90
2018-12-02T04:06:46.938Z,23.43
2018-12-02T04:17:06.207Z,24.77
2018-12-02T04:27:25.513Z,26.20
2018-12-02T04:37:45.075Z,25.90
2018-12-02T04:48:04.899Z,32.70
2018-12-02T04:58:24.187Z,30.47
2018-12-02T05:08:43.364Z,27.53
2018-12-02T05:19:02.851Z,20.47
2018-12-02T05:29:22.435Z,29.53
2018-12-02T05:39:41.727Z,27.23
2018-12-02T05:50:01.121Z,35.10
2018-12-02T06:00:21.416Z,34.57
2018-12-02T06:10:42.438Z,34.93
2018-12-02T06:21:01.863Z,36.20
2018-12-02T06:31:20.687Z,33.00
2018-12-02T06:41:40.724Z,26.77
2018-12-02T06:52:00.802Z,29.33
2018-12-02T07:02:37.291Z,34.00
2018-12-02T07:12:57.169Z,38.73
2018-12-02T07:23:16.424Z,47.90
2018-12-02T07:33:36.330Z,40.07
2018-12-02T07:44:08.166Z,32.67
2018-12-02T07:54:27.995Z,26.27
2018-12-02T08:04:47.394Z,28.80
2018-12-02T08:15:11.295Z,28.33
2018-12-02T08:25:30.904Z,30.63
2018-12-02T08:35:50.472Z,31.23
2018-12-02T08:46:09.783Z,30.97
2018-12-02T08:56:30.178Z,31.67
2018-12-02T09:06:50.174Z,31.80
2018-12-02T09:17:10.128Z,32.97
2018-12-02T09:27:29.500Z,33.37
2018-12-02T09:37:48.589Z,32.37
2018-12-02T09:48:08.196Z,34.93
2018-12-02T09:58:29.964Z,33.57
2018-12-02T10:08:50.377Z,37.50
2018-12-02T10:19:10.041Z,35.50
2018-12-02T10:29:30.542Z,33.50
2018-12-02T10:39:51.377Z,34.07
2018-12-02T10:50:18.540Z,38.60
2018-12-02T11:00:55.757Z,35.27
2018-12-02T11:11:17.282Z,38.97
2018-12-02T11:21:36.881Z,32.13
2018-12-02T11:31:56.917Z,37.77
2018-12-02T11:42:16.429Z,34.93
2018-12-02T11:52:36.084Z,55.17
2018-12-02T12:02:56.845Z,37.40
2018-12-02T12:13:18.147Z,37.00
2018-12-02T12:23:38.043Z,36.80
2018-12-02T12:33:58.090Z,44.17
2018-12-02T12:44:18.420Z,38.53
2018-12-02T12:54:38.589Z,39.67
2018-12-02T13:04:58.246Z,39.40
2018-12-02T13:15:19.703Z,34.03
2018-12-02T13:25:39.665Z,35.83
2018-12-02T13:35:59.490Z,39.00
2018-12-02T13:46:19.441Z,38.97
2018-12-02T13:56:40.165Z,53.47
2018-12-02T14:06:59.211Z,45.30
2018-12-02T14:17:22.621Z,55.10
2018-12-02T14:27:44.773Z,75.33
2018-12-02T14:38:04.201Z,44.13
2018-12-02T14:48:23.642Z,45.73
2018-12-02T14:58:43.933Z,50.43
2018-12-02T15:09:08.456Z,52.47
2018-12-02T15:19:29.549Z,52.03
2018-12-02T15:29:49.993Z,52.07
2018-12-02T15:40:13.991Z,56.87
2018-12-02T15:50:36.793Z,49.50
2018-12-02T16:00:59.799Z,52.50
2018-12-02T16:11:21.184Z,53.87
2018-12-02T16:21:41.687Z,53.60
2018-12-02T16:32:03.970Z,52.67
2018-12-02T16:42:25.015Z,49.43
2018-12-02T16:52:48.113Z,54.20
2018-12-02T17:03:08.963Z,45.70
2018-12-02T17:13:29.864Z,51.20
2018-12-02T17:23:55.944Z,54.23
2018-12-02T17:34:20.190Z,65.63
2018-12-02T17:44:39.860Z,47.83
2018-12-02T17:55:00.444Z,54.37
2018-12-02T18:05:39.150Z,50.77
2018-12-02T18:16:02.965Z,77.00
2018-12-02T18:26:24.115Z,48.63
2018-12-02T18:36:44.913Z,49.47
2018-12-02T18:47:06.640Z,79.73
2018-12-02T18:57:31.015Z,68.30
2018-12-02T19:07:51.027Z,53.30
2018-12-02T19:18:15.113Z,56.40
2018-12-02T19:28:36.191Z,56.23
2018-12-02T19:38:58.675Z,61.23
2018-12-02T19:49:19.782Z,55.40
2018-12-02T19:59:43.671Z,48.37
2018-12-02T20:10:05.761Z,54.07
2018-12-02T20:20:53.486Z,58.30
2018-12-02T20:31:20.766Z,63.60
2018-12-02T20:41:43.833Z,53.27
2018-12-02T20:52:05.563Z,51.07
2018-12-02T21:02:28.725Z,49.90
2018-12-02T21:12:50.428Z,55.47
2018-12-02T21:23:11.240Z,53.73
2018-12-02T21:33:31.248Z,55.30
2018-12-02T21:43:51.382Z,43.30
2018-12-02T21:54:10.957Z,43.97
2018-12-02T22:04:31.311Z,46.90
2018-12-02T22:14:53.558Z,62.47
2018-12-02T22:25:14.277Z,63.10
2018-12-02T22:35:34.097Z,55.53
2018-12-02T22:45:54.656Z,37.60
2018-12-02T22:56:14.042Z,33.37
2018-12-02T23:06:33.265Z,36.10
2018-12-02T23:17:21.043Z,36.07
2018-12-02T23:27:40.223Z,34.53
2018-12-02T23:37:59.449Z,26.83
2018-12-02T23:48:19.611Z,22.80
2018-12-02T23:58:39.971Z,26.10
